Weather observations for the past three days for
Northeast Florida Regional Airport
Metric (Imperial)
Date Time (edt) Wind (kph) Vis. (km) Weather Sky Cond. Temperature (ºC) Relative Humidity Wind Chill (°C) Heat Index (°C) Pressure Precipitation (cm)
Air Dwpt 6 hour altimeter (cm) sea level (mb) 1 hr 3 hr 6 hr
Max. Min.
08 07:56 Calm 8.05 Fog/Mist OVC018 23.3 22.2 24.4 22.2 94% 76.12 1015.0
08 06:56 SW 7 16.09 Mostly Cloudy BKN034 22.8 21.7 94% 76.07 1014.2
08 05:56 SW 6 16.09 A Few Clouds FEW031 22.8 21.7 94% 76.02 1013.5
08 04:56 SW 6 16.09 Fair CLR 22.8 21.7 94% 76 1013.2
08 03:56 SW 7 16.09 Mostly Cloudy SCT014 BKN019 23.3 21.7 91% 76 1013.3
08 02:56 W 7 16.09 Fair CLR 23.9 21.7 88% 24 76.02 1013.6
08 01:56 SW 7 16.09 Mostly Cloudy BKN024 24.4 21.1 30.6 24.4 82% 25 76.05 1013.9
08 00:56 W 13 16.09 Fair CLR 25 21.1 79% 26 76.07 1014.1
07 23:56 W 9 16.09 Fair CLR 26.1 20 69% 27 76.05 1013.8
07 22:56 W 9 16.09 Fair CLR 27.2 18.9 61% 28 76.02 1013.6
07 21:56 W 9 16.09 Fair CLR 28.3 18.3 55% 29 76 1013.1
07 20:56 W 9 16.09 Fair CLR 28.9 16.7 48% 29 75.95 1012.5
07 19:56 SW 11 16.09 Fair CLR 30.6 15 32.8 27.2 39% 30 75.92 1012.1
07 18:56 SW 15 16.09 Fair CLR 31.7 17.2 42% 32 75.87 1011.4
07 17:56 SW 19 16.09 Fair CLR 32.8 17.8 41% 34 75.87 1011.4
07 16:56 W 17 16.09 Fair CLR 32.2 19.4 47% 34 75.95 1012.4
07 15:56 NE 15 16.09 Fair CLR 28.9 21.1 63% 31 76.02 1013.4
07 14:56 E 13 16.09 Fair CLR 28.9 21.1 63% 31 76.05 1013.8
07 13:56 N 22 16.09 Fair CLR 28.3 21.1 33.9 23.3 65% 31 76.15 1015.0
07 12:56 W 17 16.09 Fair CLR 33.3 17.8 40% 34 76.12 1014.7
07 11:56 W 17 G 31 16.09 Fair CLR 31.7 17.8 43% 32 76.15 1015.2
07 10:56 S 19 16.09 Fair CLR 30.6 19.4 51% 32 76.12 1014.9
07 09:56 S 15 G 26 16.09 A Few Clouds FEW002 27.8 20 63% 29 76.15 1015.3
07 08:56 S 15 16.09 Fair CLR 25 18.9 69% 26 76.15 1015.2
07 07:56 S 15 16.09 Fair CLR 23.3 17.8 23.9 21.7 71% 76.15 1015.3
07 06:56 S 15 16.09 Fair CLR 22.8 16.7 69% 76.15 1015.3
07 05:56 S 11 16.09 Fair CLR 21.7 18.3 81% 76.12 1015.0
07 04:56 S 11 16.09 Fair CLR 21.7 18.3 81% 76.07 1014.3
07 03:56 S 15 16.09 Fair CLR 22.2 16.7 71% 76.07 1014.3
07 02:56 S 9 16.09 Fair CLR 22.8 16.7 69% 76.12 1014.8
07 01:56 S 15 16.09 Fair CLR 23.9 16.1 25.6 23.9 62% 25 76.17 1015.5
07 00:56 S 17 16.09 Fair CLR 24.4 16.1 60% 26 76.2 1016.0
06 23:56 S 15 16.09 Fair CLR 24.4 16.7 62% 25 76.23 1016.3
06 22:56 S 11 16.09 Fair CLR 25 17.2 62% 26 76.2 1016.0
06 21:56 S 19 16.09 Partly Cloudy SCT070 25 18.3 66% 26 76.2 1016.0
06 20:56 S 24 16.09 Fair CLR 25 18.3 66% 26 76.17 1015.6
06 19:56 SE 24 16.09 Fair CLR 25.6 19.4 28.9 25.6 69% 27 76.15 1015.2
06 18:56 SE 24 16.09 Fair CLR 26.7 20 67% 28 76.15 1015.3
06 17:56 SE 26 G 37 16.09 Fair CLR 27.8 20 63% 29 76.15 1015.2
06 16:56 SE 28 16.09 Fair CLR 27.8 21.1 67% 30 76.17 1015.5
06 15:56 SE 26 16.09 Fair CLR 28.3 21.1 65% 31 76.2 1015.9
06 14:56 SE 28 16.09 Fair CLR 27.8 21.7 69% 30 76.25 1016.5
06 13:56 SE 26 16.09 Fair CLR 27.8 21.1 30 20.6 67% 30 76.28 1017.0
06 12:56 SE 22 16.09 Fair CLR 28.3 20.6 63% 30 76.33 1017.6
06 11:56 SW 13 16.09 Fair CLR 28.9 18.3 53% 30 76.35 1018.0
06 10:56 SW 15 16.09 A Few Clouds FEW002 27.2 18.3 58% 28 76.35 1017.9
06 09:56 SW 17 16.09 Fair CLR 26.1 18.9 65% 27 76.35 1017.8
06 08:56 S 11 16.09 Fair CLR 23.9 18.3 71% 25 76.33 1017.7
06 07:56 S 9 16.09 Fair CLR 20.6 17.2 20.6 17.8 81% 76.3 1017.3
06 06:56 S 7 16.09 Fair CLR 18.3 16.1 87% 76.28 1016.8
06 05:56 SW 6 16.09 Fair CLR 18.3 15.6 84% 76.25 1016.6
06 04:56 S 7 16.09 Fair CLR 18.3 15 81% 76.23 1016.1
06 03:56 S 7 16.09 Fair CLR 17.8 14.4 81% 76.23 1016.1
06 02:56 Calm 16.09 Fair CLR 17.8 13.9 78% 76.25 1016.4
06 01:56 SW 7 16.09 Fair CLR 18.3 14.4 22.2 18.3 78% 76.3 1017.1
06 00:56 SW 6 16.09 Fair CLR 18.3 14.4 78% 76.3 1017.3
05 23:56 Calm 16.09 Fair CLR 19.4 15 76% 76.33 1017.5
05 22:56 S 9 16.09 Fair CLR 21.7 15.6 68% 76.28 1016.8
05 21:56 SE 15 16.09 Fair CLR 21.7 15.6 68% 76.25 1016.7
05 20:56 SE 11 16.09 Fair CLR 21.7 14.4 63% 76.25 1016.5
05 19:56 SE 17 16.09 Fair CLR 22.2 13.9 25.6 22.2 59% 76.23 1016.2
05 18:56 SE 22 16.09 Fair CLR 23.9 13.9 54% 25 76.23 1016.1
05 17:56 E 22 16.09 Fair CLR 24.4 14.4 54% 26 76.23 1016.3
05 16:56 E 20 16.09 Fair CLR 25 13.9 50% 26 76.23 1016.3
05 15:56 SE 20 16.09 Fair CLR 25 15 54% 26 76.28 1016.9
05 14:56 E 17 16.09 Fair CLR 25 14.4 52% 26 76.33 1017.5
05 13:56 E 19 16.09 Fair CLR 25 14.4 25 18.3 52% 26 76.35 1017.9
05 12:56 E 17 16.09 Fair CLR 24.4 15 56% 26 76.38 1018.3
05 11:56 E 13 16.09 Fair CLR 24.4 14.4 54% 26 76.38 1018.4
05 10:56 E 13 16.09 Fair CLR 24.4 14.4 54% 26 76.38 1018.2
05 09:56 E 15 16.09 Fair CLR 23.9 15.6 60% 25 76.35 1017.8
05 08:56 Vrbl 11 16.09 Fair CLR 23.3 15 60% 76.33 1017.6
Date Time (edt) Wind (kph) Vis. (km) Weather Sky Cond. Air Dwpt Max. Min. Relative Humidity Wind Chill (°C) Heat Index (°C) altimeter (cm) sea level (mb) 1 hr 3 hr 6 hr
6 hour
Temperature (ºC) Pressure Precipitation (cm)